Time;durP1;ratioP1;P1;durP2;ratioP2;P2;SDS_P1;SDS_P2;PMS_P1;PMS_P2;Temp;Humidity;BMP_temperature;BMP_pressure;BME280_temperature;BME280_humidity;BME280_pressure;Samples;Min_cycle;Max_cycle;Signal;HPM_P1;HPM_P2
2022/09/15 04:00:35;;;;;;;4.30;3.10;;;18.40;99.90;;;;;;6083711;23;20491;31
2022/09/15 04:03:02;;;;;;;6.60;3.17;;;18.40;99.90;;;;;;4945678;29;20481;-75
2022/09/15 04:05:29;;;;;;;3.60;2.60;;;18.40;99.90;;;;;;4946435;29;21003;-76
2022/09/15 04:07:56;;;;;;;4.07;2.90;;;18.40;99.90;;;;;;4946952;29;20911;-76
2022/09/15 04:10:23;;;;;;;3.37;2.60;;;18.40;99.90;;;;;;4947361;29;20461;-76
2022/09/15 04:12:51;;;;;;;4.87;2.50;;;18.40;99.90;;;;;;4946607;28;20465;-76
2022/09/15 04:15:18;;;;;;;5.37;2.57;;;18.30;99.90;;;;;;4946845;28;20461;-75
2022/09/15 04:17:46;;;;;;;4.60;3.00;;;18.40;99.90;;;;;;4947354;29;20461;-76
2022/09/15 04:20:14;;;;;;;9.57;2.87;;;18.40;99.90;;;;;;4947052;29;20504;-73
2022/09/15 04:22:41;;;;;;;2.70;2.47;;;18.40;99.90;;;;;;4947281;28;20634;-76
2022/09/15 04:25:09;;;;;;;11.03;2.77;;;18.40;99.90;;;;;;4947078;29;20471;-76
2022/09/15 04:27:37;;;;;;;3.33;2.13;;;18.40;99.90;;;;;;4947011;28;20462;-75
2022/09/15 04:30:06;;;;;;;6.80;2.40;;;18.40;99.90;;;;;;4947110;28;20469;-76
2022/09/15 04:32:34;;;;;;;3.97;2.37;;;18.40;99.90;;;;;;4947803;28;20540;-78
2022/09/15 04:35:02;;;;;;;3.00;2.00;;;18.30;99.90;;;;;;4947412;29;20566;-78
2022/09/15 04:37:29;;;;;;;3.07;2.10;;;18.30;99.90;;;;;;4947640;28;20560;-76
2022/09/15 04:39:56;;;;;;;3.00;2.23;;;18.30;99.90;;;;;;4947398;29;20465;-75
2022/09/15 04:42:23;;;;;;;3.73;2.30;;;18.30;99.90;;;;;;4946950;29;20529;-76
2022/09/15 04:44:50;;;;;;;3.10;2.43;;;18.30;99.90;;;;;;4946517;28;20461;-76
2022/09/15 04:47:17;;;;;;;3.33;2.13;;;18.30;99.90;;;;;;4947716;29;20492;-74
2022/09/15 04:49:44;;;;;;;3.73;2.27;;;18.20;99.90;;;;;;4947515;29;20882;-76
2022/09/15 04:52:12;;;;;;;2.70;2.20;;;18.20;99.90;;;;;;4947105;29;20505;-76
2022/09/15 04:54:39;;;;;;;4.80;2.20;;;18.20;99.90;;;;;;4946403;28;20472;-75
2022/09/15 04:57:06;;;;;;;6.10;2.20;;;18.20;99.90;;;;;;4947400;28;20472;-75
2022/09/15 04:59:33;;;;;;;8.30;2.20;;;18.20;99.90;;;;;;4947017;28;20469;-76
2022/09/15 05:01:59;;;;;;;2.50;2.30;;;18.30;99.90;;;;;;4946873;29;20501;-76
2022/09/15 05:04:26;;;;;;;3.40;2.33;;;18.20;99.90;;;;;;4946996;29;20465;-76
2022/09/15 05:06:53;;;;;;;5.40;2.00;;;18.20;99.90;;;;;;4947355;29;20468;-77
2022/09/15 05:09:21;;;;;;;3.30;2.07;;;18.20;99.90;;;;;;4947436;29;20461;-76
2022/09/15 05:11:48;;;;;;;6.73;2.53;;;18.20;99.90;;;;;;4950519;29;21403;-77
2022/09/15 05:14:15;;;;;;;6.73;2.30;;;18.20;99.90;;;;;;4950998;29;21019;-69
2022/09/15 05:16:41;;;;;;;5.73;2.70;;;18.20;99.90;;;;;;4951816;28;20469;-69
2022/09/15 05:19:10;;;;;;;8.77;2.07;;;18.20;99.90;;;;;;4951691;28;20462;-69
2022/09/15 05:21:37;;;;;;;4.70;2.17;;;18.20;99.90;;;;;;4950424;28;20997;-69
2022/09/15 05:24:04;;;;;;;4.00;2.53;;;18.20;99.90;;;;;;4952021;28;20538;-69
2022/09/15 05:26:32;;;;;;;3.47;2.27;;;18.20;99.90;;;;;;4954944;28;20461;-70
2022/09/15 05:28:59;;;;;;;6.17;2.90;;;18.20;99.90;;;;;;4954407;28;20468;-69
2022/09/15 05:31:29;;;;;;;4.40;3.00;;;18.20;99.90;;;;;;4955068;28;20481;-77
2022/09/15 05:33:57;;;;;;;3.43;2.70;;;18.20;99.90;;;;;;4955714;28;20509;-74
2022/09/15 05:36:24;;;;;;;9.30;2.70;;;18.20;99.90;;;;;;4954744;28;20962;-79
2022/09/15 05:38:52;;;;;;;3.97;2.37;;;18.20;99.90;;;;;;4954514;28;20465;-78
2022/09/15 05:41:19;;;;;;;7.33;2.90;;;18.20;99.90;;;;;;4954286;28;20504;-78
2022/09/15 05:43:49;;;;;;;3.60;2.70;;;18.20;99.90;;;;;;4954804;29;20476;-78
2022/09/15 05:46:17;;;;;;;4.20;2.83;;;18.10;99.90;;;;;;4953600;28;21064;-79
2022/09/15 05:48:45;;;;;;;6.13;3.40;;;18.10;99.90;;;;;;4954816;28;20488;-75
2022/09/15 05:51:13;;;;;;;2.80;2.23;;;18.10;99.90;;;;;;4954080;28;20478;-77
2022/09/15 05:53:40;;;;;;;6.83;2.40;;;18.10;99.90;;;;;;4953839;29;20487;-78
2022/09/15 05:56:10;;;;;;;3.50;2.70;;;18.10;99.90;;;;;;4953396;29;20867;-78
2022/09/15 05:58:39;;;;;;;5.50;2.90;;;18.10;99.90;;;;;;4954766;29;20559;-78
2022/09/15 06:01:11;;;;;;;3.40;2.67;;;18.00;99.90;;;;;;4953975;28;20493;-77
2022/09/15 06:03:37;;;;;;;3.50;2.50;;;18.00;99.90;;;;;;4954500;28;20469;-77
2022/09/15 06:06:05;;;;;;;5.93;3.00;;;18.00;99.90;;;;;;4953203;28;20465;-77
2022/09/15 06:08:34;;;;;;;4.80;3.30;;;18.00;99.90;;;;;;4953172;28;20454;-77
2022/09/15 06:11:02;;;;;;;3.93;2.87;;;18.00;99.90;;;;;;4952638;28;20493;-78
2022/09/15 06:13:29;;;;;;;3.93;2.87;;;18.00;99.90;;;;;;4952106;28;20465;-78
2022/09/15 06:16:00;;;;;;;2.70;2.50;;;18.00;99.90;;;;;;4951575;29;20468;-77
2022/09/15 06:18:28;;;;;;;4.70;2.80;;;17.90;99.90;;;;;;4952504;29;20466;-78
2022/09/15 06:20:55;;;;;;;6.57;3.00;;;18.00;99.90;;;;;;4952805;29;20480;-78
2022/09/15 06:23:22;;;;;;;5.27;3.13;;;18.00;99.90;;;;;;4953490;29;20465;-78
2022/09/15 06:25:49;;;;;;;8.27;3.17;;;18.00;99.90;;;;;;4953134;29;20841;-77
2022/09/15 06:28:15;;;;;;;6.13;3.40;;;18.00;99.90;;;;;;4953611;29;20466;-77
2022/09/15 06:30:47;;;;;;;3.00;2.70;;;18.00;99.90;;;;;;4952675;29;20896;-76
2022/09/15 06:33:14;;;;;;;3.60;2.73;;;17.90;99.90;;;;;;4953068;28;20830;-77
2022/09/15 06:35:42;;;;;;;5.43;3.20;;;17.90;99.90;;;;;;4951709;28;20458;-78
2022/09/15 06:38:10;;;;;;;5.97;3.33;;;17.90;99.90;;;;;;4953385;28;20773;-78
2022/09/15 06:40:37;;;;;;;6.57;3.33;;;17.90;99.90;;;;;;4953931;28;20485;-76
2022/09/15 06:43:04;;;;;;;4.50;3.00;;;17.90;99.90;;;;;;4953004;28;20508;-78
2022/09/15 06:45:32;;;;;;;4.70;3.53;;;17.80;99.90;;;;;;4952907;28;20469;-77
2022/09/15 06:47:59;;;;;;;5.80;3.37;;;17.80;99.90;;;;;;4952426;28;20836;-77
2022/09/15 06:50:26;;;;;;;4.80;3.17;;;17.80;99.90;;;;;;4952986;29;20465;-79
2022/09/15 06:52:54;;;;;;;6.10;3.57;;;17.70;99.90;;;;;;4952708;29;20543;-78
2022/09/15 06:55:21;;;;;;;8.23;3.97;;;17.70;99.90;;;;;;4951851;29;20554;-78
2022/09/15 06:57:49;;;;;;;5.03;3.90;;;17.70;99.90;;;;;;4952384;29;20483;-78
2022/09/15 07:00:17;;;;;;;4.60;3.30;;;17.70;99.90;;;;;;4952271;29;20544;-74
2022/09/15 07:02:44;;;;;;;4.40;4.00;;;17.70;99.90;;;;;;4952485;29;20500;-74
2022/09/15 07:05:11;;;;;;;4.93;3.67;;;17.70;99.90;;;;;;4952104;28;20472;-78
2022/09/15 07:07:38;;;;;;;4.60;3.70;;;17.70;99.90;;;;;;4952151;29;20466;-78
2022/09/15 07:10:06;;;;;;;7.77;3.93;;;17.70;99.90;;;;;;4952472;29;20461;-78
2022/09/15 07:12:33;;;;;;;6.70;4.00;;;17.70;99.90;;;;;;4952727;29;20477;-76
2022/09/15 07:15:00;;;;;;;5.80;4.23;;;17.70;99.90;;;;;;4951809;29;20464;-77
2022/09/15 07:17:28;;;;;;;7.27;4.30;;;17.80;99.90;;;;;;4952022;29;20469;-78
2022/09/15 07:19:55;;;;;;;4.63;4.23;;;17.70;99.90;;;;;;4951706;29;20466;-78
2022/09/15 07:22:24;;;;;;;5.10;3.83;;;17.80;99.90;;;;;;4952844;28;20497;-76
2022/09/15 07:24:50;;;;;;;4.77;4.00;;;17.70;99.90;;;;;;4951980;28;20458;-78
2022/09/15 07:27:18;;;;;;;5.93;4.00;;;17.80;99.90;;;;;;4951531;28;20469;-78
2022/09/15 07:29:45;;;;;;;4.53;4.10;;;17.80;99.90;;;;;;4952039;28;20768;-78
2022/09/15 07:32:12;;;;;;;6.67;4.43;;;17.80;99.90;;;;;;4951603;28;20483;-76
2022/09/15 07:34:39;;;;;;;6.43;4.10;;;17.90;99.90;;;;;;4951885;28;20980;-78
2022/09/15 07:37:06;;;;;;;4.13;3.37;;;17.90;99.90;;;;;;4952027;28;21087;-78
2022/09/15 07:39:33;;;;;;;7.30;3.67;;;17.90;99.90;;;;;;4951032;28;20633;-78
2022/09/15 07:42:00;;;;;;;7.67;4.13;;;17.90;99.90;;;;;;4952089;28;20974;-77
2022/09/15 07:44:28;;;;;;;7.33;4.87;;;17.90;99.90;;;;;;4952658;28;20477;-77
2022/09/15 07:46:55;;;;;;;4.73;3.43;;;17.90;99.90;;;;;;4952432;28;20454;-78
2022/09/15 07:49:22;;;;;;;5.40;3.67;;;17.90;99.90;;;;;;4948098;28;20492;-80
2022/09/15 07:51:49;;;;;;;4.47;3.30;;;17.90;99.90;;;;;;4951477;29;20485;-76
2022/09/15 07:54:16;;;;;;;6.87;3.37;;;17.90;99.90;;;;;;4950420;28;20470;-75
2022/09/15 07:56:42;;;;;;;5.87;3.27;;;17.90;99.90;;;;;;4950949;28;20469;-78
2022/09/15 07:59:09;;;;;;;4.07;3.07;;;17.90;99.90;;;;;;4951883;28;20465;-74
2022/09/15 08:01:37;;;;;;;4.57;3.63;;;17.90;99.90;;;;;;4951818;28;20509;-78
2022/09/15 08:04:04;;;;;;;5.03;3.57;;;17.90;99.90;;;;;;4952772;28;21161;-80
2022/09/15 08:06:31;;;;;;;4.23;3.20;;;17.90;99.90;;;;;;4951603;28;20956;-80
2022/09/15 08:08:58;;;;;;;5.90;3.23;;;17.90;99.90;;;;;;4951757;28;20475;-77
2022/09/15 08:11:25;;;;;;;6.53;3.53;;;18.00;99.90;;;;;;4951755;28;20494;-78
2022/09/15 08:13:52;;;;;;;5.07;3.63;;;18.00;99.90;;;;;;4951867;29;20462;-77
2022/09/15 08:16:20;;;;;;;7.70;3.37;;;18.00;99.90;;;;;;4951505;29;20716;-74
2022/09/15 08:18:49;;;;;;;6.30;3.63;;;18.00;99.90;;;;;;4952229;29;20465;-75
2022/09/15 08:21:19;;;;;;;5.43;3.97;;;18.10;99.90;;;;;;4951608;29;20862;-77
2022/09/15 08:23:50;;;;;;;7.83;3.60;;;18.10;99.90;;;;;;4952185;29;20457;-78
2022/09/15 08:26:17;;;;;;;3.50;3.07;;;18.20;99.90;;;;;;4952000;29;20446;-78
2022/09/15 08:28:43;;;;;;;7.97;3.57;;;18.20;99.90;;;;;;4952645;29;20461;-79
2022/09/15 08:31:12;;;;;;;4.97;3.63;;;18.20;99.90;;;;;;4952209;29;20491;-77
2022/09/15 08:33:39;;;;;;;4.17;3.30;;;18.20;99.90;;;;;;4952559;29;20445;-78
2022/09/15 08:36:10;;;;;;;4.70;2.77;;;18.20;99.90;;;;;;4951432;29;21140;-75
2022/09/15 08:38:39;;;;;;;4.07;2.83;;;18.30;99.90;;;;;;4951672;28;20470;-77
2022/09/15 08:41:10;;;;;;;5.90;2.50;;;18.30;99.90;;;;;;4951922;29;20540;-76
2022/09/15 08:43:44;;;;;;;6.40;2.30;;;18.30;99.90;;;;;;4951474;29;20551;-78
2022/09/15 08:46:16;;;;;;;2.50;1.80;;;18.30;99.90;;;;;;4951006;29;20544;-77
2022/09/15 08:48:49;;;;;;;4.20;2.30;;;18.20;99.90;;;;;;4950778;28;21378;-74
2022/09/15 08:51:23;;;;;;;2.27;2.07;;;18.20;99.90;;;;;;4951764;28;20481;-76
2022/09/15 08:53:54;;;;;;;5.43;2.57;;;18.10;99.90;;;;;;4951600;28;20459;-78
2022/09/15 08:56:21;;;;;;;3.20;2.23;;;18.10;99.90;;;;;;4950799;29;20472;-74
2022/09/15 08:58:48;;;;;;;2.50;2.13;;;18.10;99.90;;;;;;4952473;28;20457;-76
2022/09/15 09:01:27;;;;;;;2.83;2.20;;;18.10;99.90;;;;;;4953404;29;20508;-78
2022/09/15 09:04:08;;;;;;;4.30;2.63;;;18.00;99.90;;;;;;4954172;28;20449;-78
2022/09/15 09:06:43;;;;;;;5.60;2.70;;;18.00;99.90;;;;;;4955417;29;20430;-78
2022/09/15 09:09:24;;;;;;;2.80;2.03;;;18.00;99.90;;;;;;4956190;29;20480;-77
2022/09/15 09:12:06;;;;;;;2.93;1.47;;;18.00;99.90;;;;;;4965423;29;20473;-78
2022/09/15 09:14:42;;;;;;;3.03;2.30;;;17.90;99.90;;;;;;4964554;29;20442;-77
2022/09/15 09:17:30;;;;;;;2.50;1.63;;;17.90;99.90;;;;;;4964000;28;20449;-77
2022/09/15 09:20:30;;;;;;;1.90;1.60;;;17.80;99.90;;;;;;4957539;28;20449;-72
2022/09/15 09:23:01;;;;;;;2.00;1.63;;;17.90;99.90;;;;;;4949852;28;20512;-76
2022/09/15 09:25:28;;;;;;;1.20;1.10;;;17.90;99.90;;;;;;4952626;29;20457;-77
2022/09/15 09:27:57;;;;;;;2.03;1.37;;;17.90;99.90;;;;;;4951620;29;20461;-67
2022/09/15 09:30:27;;;;;;;1.93;1.03;;;17.90;99.90;;;;;;4949824;29;20520;-69
2022/09/15 09:33:15;;;;;;;1.50;1.20;;;17.90;99.90;;;;;;4950858;28;20501;-71
2022/09/15 09:35:44;;;;;;;1.07;0.97;;;17.90;99.90;;;;;;4949941;29;20456;-71
2022/09/15 09:38:17;;;;;;;1.13;1.03;;;17.90;99.90;;;;;;4949652;28;20528;-69
2022/09/15 09:40:45;;;;;;;1.70;1.17;;;17.90;99.90;;;;;;4950175;29;20481;-69
2022/09/15 09:43:12;;;;;;;1.77;0.93;;;17.80;99.90;;;;;;4931446;29;20596;-70
2022/09/15 09:45:39;;;;;;;2.40;1.10;;;17.80;99.90;;;;;;4933042;29;20463;-69
2022/09/15 09:48:16;;;;;;;2.07;1.00;;;17.80;99.90;;;;;;4949797;29;20458;-66
2022/09/15 09:50:43;;;;;;;1.00;0.90;;;17.70;99.90;;;;;;4949824;29;21040;-67
2022/09/15 09:53:25;;;;;;;2.23;1.17;;;17.70;99.90;;;;;;4949389;28;20453;-68
2022/09/15 09:55:54;;;;;;;3.80;1.50;;;17.60;99.90;;;;;;4947400;29;20450;-69
2022/09/15 09:58:23;;;;;;;1.77;1.40;;;17.60;99.90;;;;;;4949610;29;20454;-67
2022/09/15 10:00:51;;;;;;;2.20;1.60;;;17.50;99.90;;;;;;4947060;29;20485;-66
2022/09/15 10:03:20;;;;;;;3.00;1.70;;;17.50;99.90;;;;;;4947112;29;20869;-66
2022/09/15 10:06:01;;;;;;;2.20;1.90;;;17.40;99.90;;;;;;4948497;29;20458;-66
2022/09/15 10:08:30;;;;;;;2.70;1.90;;;17.40;99.90;;;;;;4947457;28;20454;-67
2022/09/15 10:11:03;;;;;;;4.57;3.40;;;17.40;99.90;;;;;;4949238;28;20597;-67
2022/09/15 10:13:30;;;;;;;2.03;1.77;;;17.40;99.90;;;;;;4948658;29;20961;-67
2022/09/15 10:15:59;;;;;;;2.20;1.80;;;17.40;99.90;;;;;;4948946;28;21005;-67
2022/09/15 10:18:30;;;;;;;3.07;2.10;;;17.40;99.90;;;;;;4948971;28;20465;-67
2022/09/15 10:20:58;;;;;;;1.93;1.60;;;17.40;99.90;;;;;;4949144;28;20497;-67
2022/09/15 10:23:27;;;;;;;2.47;1.90;;;17.40;99.90;;;;;;4949704;28;20855;-67
2022/09/15 10:26:18;;;;;;;3.40;1.90;;;17.30;99.90;;;;;;4946590;28;20840;-67
2022/09/15 10:29:03;;;;;;;3.27;2.17;;;17.30;99.90;;;;;;4948638;29;20462;-68
2022/09/15 10:31:32;;;;;;;2.00;1.80;;;17.30;99.90;;;;;;4948997;29;20993;-67
2022/09/15 10:34:26;;;;;;;2.70;1.90;;;17.30;99.90;;;;;;4948688;28;20489;-67
2022/09/15 10:36:54;;;;;;;2.00;1.80;;;17.30;99.90;;;;;;4949124;29;20473;-70
2022/09/15 10:39:31;;;;;;;2.43;1.83;;;17.30;99.90;;;;;;4948776;28;20832;-70
2022/09/15 10:42:08;;;;;;;4.30;1.60;;;17.30;99.90;;;;;;4947320;29;20477;-69
2022/09/15 10:44:45;;;;;;;2.00;1.40;;;17.30;99.90;;;;;;4947324;28;20784;-72
2022/09/15 10:47:21;;;;;;;6.60;1.70;;;17.40;99.90;;;;;;4949227;28;20210;-69
2022/09/15 10:50:02;;;;;;;3.93;1.97;;;17.40;99.90;;;;;;4949220;28;20445;-72
2022/09/15 10:52:41;;;;;;;1.27;1.07;;;17.40;99.90;;;;;;4949173;28;20480;-71
2022/09/15 10:55:31;;;;;;;2.00;1.50;;;17.30;99.90;;;;;;4948574;28;20446;-69
2022/09/15 10:58:22;;;;;;;1.57;1.20;;;17.20;99.90;;;;;;4948392;28;20450;-72
2022/09/15 11:01:00;;;;;;;1.67;1.57;;;17.10;99.90;;;;;;4946490;28;20877;-71
2022/09/15 11:03:47;;;;;;;2.33;1.70;;;17.00;99.90;;;;;;4948988;28;20492;-72
2022/09/15 11:06:21;;;;;;;1.67;1.50;;;17.00;99.90;;;;;;4948168;28;20989;-74
2022/09/15 11:09:12;;;;;;;2.23;1.90;;;16.90;99.90;;;;;;4950252;29;20460;-75
2022/09/15 11:11:48;;;;;;;3.33;1.97;;;16.90;99.90;;;;;;4948475;29;20990;-73
2022/09/15 11:14:31;;;;;;;2.80;2.10;;;16.90;99.90;;;;;;4948857;29;20444;-70
2022/09/15 11:17:12;;;;;;;3.60;2.40;;;16.80;99.90;;;;;;4947479;29;20450;-70
2022/09/15 11:20:14;;;;;;;2.20;2.10;;;16.80;99.90;;;;;;4945716;29;20449;-70
2022/09/15 11:22:49;;;;;;;2.97;2.30;;;16.80;99.90;;;;;;4947423;28;20484;-70
2022/09/15 11:25:20;;;;;;;4.50;3.33;;;16.80;99.90;;;;;;4947638;29;21088;-69
2022/09/15 11:27:52;;;;;;;3.57;2.67;;;16.80;99.90;;;;;;4949051;29;20466;-70
2022/09/15 11:30:23;;;;;;;6.20;5.43;;;16.80;99.90;;;;;;4949632;28;20458;-67
2022/09/15 11:32:55;;;;;;;11.67;7.97;;;16.70;99.90;;;;;;4950641;28;20453;-66
2022/09/15 11:35:40;;;;;;;3.70;3.30;;;16.70;99.90;;;;;;4950334;29;20446;-66
2022/09/15 11:38:30;;;;;;;5.10;3.37;;;16.60;99.90;;;;;;4949783;29;20454;-73
2022/09/15 11:41:05;;;;;;;4.33;3.10;;;16.60;99.90;;;;;;4948062;28;20481;-75
2022/09/15 11:43:37;;;;;;;3.90;2.87;;;16.60;99.90;;;;;;4948575;28;20492;-75
2022/09/15 11:46:13;;;;;;;6.00;3.37;;;16.50;99.90;;;;;;4947238;28;21411;-74
2022/09/15 11:48:44;;;;;;;3.90;3.23;;;16.50;99.90;;;;;;4948597;29;20449;-73
2022/09/15 11:51:16;;;;;;;3.30;2.43;;;16.60;99.90;;;;;;4948261;29;20488;-72
2022/09/15 11:53:49;;;;;;;10.63;9.57;;;16.50;99.90;;;;;;4948372;29;20478;-74
2022/09/15 11:56:24;;;;;;;8.40;4.80;;;16.50;99.90;;;;;;4947684;29;20518;-73
2022/09/15 11:59:04;;;;;;;6.10;3.73;;;16.60;99.90;;;;;;4948842;29;20446;-71
2022/09/15 12:01:41;;;;;;;11.03;5.40;;;16.60;99.90;;;;;;4947243;29;20921;-71
2022/09/15 12:04:12;;;;;;;5.83;3.63;;;16.60;99.90;;;;;;4947824;29;20496;-71
2022/09/15 12:06:44;;;;;;;6.93;4.17;;;16.60;99.90;;;;;;4947430;28;20458;-74
2022/09/15 12:09:14;;;;;;;7.90;4.00;;;16.60;99.90;;;;;;4947957;29;20521;-78
2022/09/15 12:11:43;;;;;;;5.20;4.33;;;16.60;99.90;;;;;;4947318;29;20985;-68
2022/09/15 12:14:16;;;;;;;4.37;3.20;;;16.60;99.90;;;;;;4946963;29;20485;-74
2022/09/15 12:16:45;;;;;;;6.17;3.33;;;16.60;99.90;;;;;;4948084;28;20469;-72
2022/09/15 12:19:18;;;;;;;4.27;3.67;;;16.60;99.90;;;;;;4947579;29;20489;-71
2022/09/15 12:21:53;;;;;;;7.97;3.97;;;16.60;99.90;;;;;;4950496;28;20486;-83
2022/09/15 12:24:34;;;;;;;4.43;3.20;;;16.60;99.90;;;;;;4948196;29;21327;-72
2022/09/15 12:27:01;;;;;;;5.20;3.30;;;16.60;99.90;;;;;;4948200;28;20461;-75
2022/09/15 12:29:38;;;;;;;3.80;3.00;;;16.60;99.90;;;;;;4947587;28;20468;-75
2022/09/15 12:32:21;;;;;;;3.97;3.13;;;16.60;99.90;;;;;;4948864;28;20493;-78
2022/09/15 12:35:32;;;;;;;4.47;2.80;;;16.50;99.90;;;;;;4949096;28;20442;-75
2022/09/15 12:37:59;;;;;;;6.73;3.20;;;16.60;99.90;;;;;;4911372;29;20553;-77
2022/09/15 12:40:34;;;;;;;6.83;4.00;;;16.60;99.90;;;;;;4948857;29;20544;-76
2022/09/15 12:43:02;;;;;;;8.07;4.53;;;16.50;99.90;;;;;;4948590;29;20534;-77
2022/09/15 12:45:31;;;;;;;8.15;5.05;;;16.40;99.90;;;;;;4948130;29;20452;-76
2022/09/15 12:48:04;;;;;;;7.70;5.33;;;16.40;99.90;;;;;;4949257;28;20243;-77
2022/09/15 12:50:33;;;;;;;7.93;5.20;;;16.40;99.90;;;;;;4948546;29;20468;-76
2022/09/15 12:53:02;;;;;;;8.03;6.23;;;16.30;99.90;;;;;;4948563;29;20457;-76
2022/09/15 12:55:33;;;;;;;9.73;6.70;;;16.30;99.90;;;;;;4948687;29;20469;-76
2022/09/15 12:58:07;;;;;;;22.67;6.50;;;16.20;99.90;;;;;;4947842;29;20458;-75
2022/09/15 13:00:39;;;;;;;12.97;6.60;;;16.10;99.90;;;;;;4947860;29;20457;-68
2022/09/15 13:03:27;;;;;;;9.17;7.20;;;16.10;99.90;;;;;;4947006;29;20496;-70
2022/09/15 13:06:17;;;;;;;11.73;7.43;;;16.00;99.90;;;;;;4946610;29;20808;-71
2022/09/15 13:08:55;;;;;;;11.77;7.40;;;16.00;99.90;;;;;;4947349;29;20799;-75
2022/09/15 13:11:28;;;;;;;12.70;7.93;;;16.00;99.90;;;;;;4946647;29;20528;-70
2022/09/15 13:14:09;;;;;;;11.37;8.17;;;16.10;99.90;;;;;;4947488;29;20438;-70
2022/09/15 13:16:46;;;;;;;8.97;7.23;;;16.10;99.90;;;;;;4947922;28;20465;-80
2022/09/15 13:19:19;;;;;;;9.87;7.77;;;16.10;99.90;;;;;;4948464;29;20444;-71
2022/09/15 13:21:53;;;;;;;11.40;8.07;;;16.10;99.90;;;;;;4946717;28;20485;-72
2022/09/15 13:24:25;;;;;;;13.73;8.60;;;16.10;99.90;;;;;;4946378;29;20503;-71
2022/09/15 13:26:56;;;;;;;10.77;8.30;;;16.10;99.90;;;;;;4946800;29;20828;-71
2022/09/15 13:29:26;;;;;;;11.73;9.00;;;16.10;99.90;;;;;;4927566;29;20489;-77
2022/09/15 13:32:00;;;;;;;20.27;9.23;;;16.10;99.90;;;;;;4927626;29;20485;-75
2022/09/15 13:34:47;;;;;;;11.80;8.70;;;16.20;99.90;;;;;;4927316;29;20451;-74
2022/09/15 13:37:45;;;;;;;11.17;8.47;;;16.10;99.90;;;;;;4927697;29;20462;-75
2022/09/15 13:40:34;;;;;;;13.50;9.27;;;16.20;99.90;;;;;;4928097;29;20484;-76
2022/09/15 13:43:30;;;;;;;10.75;8.38;;;16.20;99.90;;;;;;4944453;29;20452;-77
2022/09/15 13:46:11;;;;;;;14.67;8.47;;;16.20;99.90;;;;;;4948980;28;20671;-70
2022/09/15 13:49:06;;;;;;;13.57;8.60;;;16.20;99.90;;;;;;4950468;29;20458;-72
2022/09/15 13:51:36;;;;;;;11.10;8.37;;;16.20;99.90;;;;;;4953124;29;20492;-78
2022/09/15 13:54:06;;;;;;;9.43;7.40;;;16.20;99.90;;;;;;4952018;29;20795;-74
2022/09/15 13:56:38;;;;;;;8.57;7.70;;;16.30;99.90;;;;;;4950065;28;20556;-83
2022/09/15 13:59:08;;;;;;;11.47;9.10;;;16.30;99.90;;;;;;4957929;28;20493;-77
2022/09/15 14:01:37;;;;;;;13.23;8.50;;;16.40;99.90;;;;;;4955556;28;20499;-77
2022/09/15 14:04:09;;;;;;;9.00;8.03;;;16.40;99.90;;;;;;4952623;29;20501;-77
2022/09/15 14:06:40;;;;;;;13.10;7.90;;;16.40;99.90;;;;;;4950626;29;20911;-72
2022/09/15 14:09:12;;;;;;;10.43;6.97;;;16.40;99.90;;;;;;4950393;29;20924;-70
2022/09/15 14:11:40;;;;;;;8.27;6.40;;;16.50;99.90;;;;;;4949540;28;20473;-70
2022/09/15 14:14:28;;;;;;;6.90;5.43;;;16.50;99.90;;;;;;4949564;29;20553;-70
2022/09/15 14:16:56;;;;;;;5.60;5.10;;;16.50;99.90;;;;;;4950035;29;20460;-75
2022/09/15 14:19:32;;;;;;;6.53;4.67;;;16.60;99.90;;;;;;4949819;29;20463;-75
2022/09/15 14:22:01;;;;;;;7.73;5.40;;;16.70;99.90;;;;;;4947990;28;20490;-76
2022/09/15 14:24:30;;;;;;;10.60;4.73;;;17.20;99.90;;;;;;4949734;29;20559;-77
2022/09/15 14:27:00;;;;;;;6.97;4.40;;;17.30;99.90;;;;;;4952407;29;20544;-74
2022/09/15 14:29:27;;;;;;;4.70;3.60;;;17.50;99.90;;;;;;4950652;28;20525;-70
2022/09/15 14:31:59;;;;;;;6.63;3.20;;;17.60;99.90;;;;;;4950812;29;20501;-76
2022/09/15 14:34:31;;;;;;;4.40;3.10;;;17.80;99.90;;;;;;4950621;29;20461;-77
2022/09/15 14:37:03;;;;;;;3.20;2.50;;;17.80;99.90;;;;;;4951241;29;20457;-79
2022/09/15 14:39:30;;;;;;;5.40;2.70;;;17.80;99.90;;;;;;4951207;29;20458;-78
2022/09/15 14:41:57;;;;;;;4.90;2.93;;;18.00;99.90;;;;;;4949734;28;20481;-74
2022/09/15 14:44:30;;;;;;;3.93;3.00;;;18.20;99.90;;;;;;4950211;28;20499;-71
2022/09/15 14:46:57;;;;;;;6.23;2.30;;;18.40;99.90;;;;;;4951400;28;20473;-76
2022/09/15 14:49:26;;;;;;;6.90;2.30;;;18.60;99.90;;;;;;4950730;29;20461;-80
2022/09/15 14:51:54;;;;;;;6.07;3.77;;;18.80;99.90;;;;;;4951796;28;20528;-78
2022/09/15 14:54:27;;;;;;;3.83;2.30;;;18.90;99.90;;;;;;4949754;29;20462;-73
2022/09/15 14:56:58;;;;;;;4.73;2.60;;;19.00;99.90;;;;;;4951414;28;20457;-82
2022/09/15 14:59:30;;;;;;;3.33;2.73;;;19.00;99.90;;;;;;4950239;28;20462;-76
2022/09/15 15:02:10;;;;;;;4.83;2.70;;;19.00;99.90;;;;;;4948764;28;20492;-75
2022/09/15 15:04:40;;;;;;;3.13;2.50;;;18.90;99.90;;;;;;4948174;28;20489;-71
2022/09/15 15:07:15;;;;;;;5.17;3.23;;;18.80;99.90;;;;;;4948804;28;20845;-72
2022/09/15 15:09:46;;;;;;;4.93;3.43;;;18.70;99.90;;;;;;4949133;28;20890;-73
2022/09/15 15:12:22;;;;;;;6.93;3.17;;;18.60;99.90;;;;;;4947902;28;20481;-72
2022/09/15 15:14:49;;;;;;;4.00;3.60;;;18.60;99.90;;;;;;4947802;28;20956;-73
2022/09/15 15:17:31;;;;;;;4.30;3.87;;;18.50;99.90;;;;;;4949150;28;20468;-72
2022/09/15 15:20:00;;;;;;;6.37;3.30;;;18.40;99.90;;;;;;4949072;28;20453;-73
2022/09/15 15:22:27;;;;;;;3.87;3.30;;;18.30;99.90;;;;;;4948137;28;21053;-71
2022/09/15 15:24:56;;;;;;;4.47;3.73;;;18.20;99.90;;;;;;4947706;28;20536;-74
2022/09/15 15:27:43;;;;;;;4.83;3.17;;;18.10;99.90;;;;;;4948215;28;20461;-74
2022/09/15 15:30:45;;;;;;;4.73;3.13;;;18.20;99.90;;;;;;4948629;28;20511;-73
2022/09/15 15:33:23;;;;;;;5.67;3.33;;;18.20;99.90;;;;;;4887305;29;20567;-75
2022/09/15 15:36:06;;;;;;;5.90;3.63;;;18.20;99.90;;;;;;4940720;28;20465;-72
2022/09/15 15:38:35;;;;;;;4.83;3.43;;;18.20;99.90;;;;;;4949096;29;20481;-72
2022/09/15 15:41:07;;;;;;;6.17;3.13;;;18.30;99.90;;;;;;4948008;28;20481;-73
2022/09/15 15:43:35;;;;;;;8.33;3.50;;;18.20;99.90;;;;;;4948331;29;21391;-72
2022/09/15 15:46:04;;;;;;;6.57;3.70;;;18.20;99.90;;;;;;4947494;29;21021;-73
2022/09/15 15:48:32;;;;;;;6.60;3.90;;;18.20;99.90;;;;;;4947950;29;20461;-74
2022/09/15 15:51:00;;;;;;;4.90;3.60;;;18.10;99.90;;;;;;4947995;28;20570;-71
2022/09/15 15:53:27;;;;;;;8.00;4.47;;;18.10;99.90;;;;;;4947355;28;20512;-71
2022/09/15 15:55:57;;;;;;;6.60;3.80;;;18.00;99.90;;;;;;4946011;28;20462;-74
2022/09/15 15:58:25;;;;;;;5.30;4.40;;;17.90;99.90;;;;;;4949013;28;20442;-74
2022/09/15 16:00:55;;;;;;;5.50;4.87;;;17.90;99.90;;;;;;4948262;28;20496;-77
2022/09/15 16:03:23;;;;;;;7.43;5.10;;;17.80;99.90;;;;;;4948605;28;20513;-76
2022/09/15 16:05:51;;;;;;;6.80;4.67;;;17.80;99.90;;;;;;4946332;28;20874;-76
2022/09/15 16:08:24;;;;;;;5.30;4.50;;;17.80;99.90;;;;;;4928687;29;20459;-72
2022/09/15 16:10:53;;;;;;;5.07;4.07;;;17.80;99.90;;;;;;4928604;29;20861;-73
2022/09/15 16:13:21;;;;;;;8.63;4.63;;;17.70;99.90;;;;;;4928394;29;20451;-74
2022/09/15 16:15:49;;;;;;;8.30;5.37;;;17.70;99.90;;;;;;4928084;29;20458;-74
2022/09/15 16:18:16;;;;;;;7.30;4.60;;;17.70;99.90;;;;;;4940801;29;20951;-73
2022/09/15 16:20:44;;;;;;;5.10;4.47;;;17.70;99.90;;;;;;4946777;28;20490;-73
2022/09/15 16:23:14;;;;;;;7.40;5.47;;;17.70;99.90;;;;;;4945414;29;20827;-71
2022/09/15 16:25:47;;;;;;;12.03;5.80;;;17.60;99.90;;;;;;4947214;29;20536;-72
2022/09/15 16:28:14;;;;;;;6.87;4.83;;;17.60;99.90;;;;;;4949585;28;20481;-80
2022/09/15 16:30:41;;;;;;;11.17;5.50;;;17.60;99.90;;;;;;4952964;29;21137;-82
2022/09/15 16:33:13;;;;;;;9.10;6.50;;;17.60;99.90;;;;;;4949716;29;20469;-87
2022/09/15 16:35:44;;;;;;;9.40;6.40;;;17.60;99.90;;;;;;4945986;29;20516;-68
2022/09/15 16:38:11;;;;;;;6.70;5.90;;;17.60;99.90;;;;;;4946501;29;20455;-75
2022/09/15 16:40:38;;;;;;;9.07;6.23;;;17.60;99.90;;;;;;4947224;29;20330;-71
2022/09/15 16:43:12;;;;;;;10.03;5.30;;;17.60;99.90;;;;;;4947272;29;20450;-74
2022/09/15 16:45:39;;;;;;;8.30;6.00;;;17.60;99.90;;;;;;4946202;29;21195;-70
2022/09/15 16:48:06;;;;;;;7.73;5.90;;;17.60;99.90;;;;;;4947126;29;20458;-76
2022/09/15 16:50:34;;;;;;;6.60;5.63;;;17.60;99.90;;;;;;4947228;29;20472;-75
2022/09/15 16:53:01;;;;;;;8.83;6.27;;;17.50;99.90;;;;;;4946025;29;20465;-76
2022/09/15 16:55:35;;;;;;;12.27;6.40;;;17.50;99.90;;;;;;4946119;28;21343;-76
2022/09/15 16:58:01;;;;;;;6.47;5.83;;;17.50;99.90;;;;;;4947336;28;21075;-77
2022/09/15 17:00:30;;;;;;;6.87;6.10;;;17.50;99.90;;;;;;4945962;28;20457;-76
2022/09/15 17:02:57;;;;;;;11.57;7.57;;;17.50;99.90;;;;;;4947051;28;20465;-77
2022/09/15 17:05:27;;;;;;;9.33;6.03;;;17.50;99.90;;;;;;4946491;28;20496;-77
2022/09/15 17:07:55;;;;;;;11.50;6.93;;;17.50;99.90;;;;;;4947303;28;20489;-76